Terminal Aerodrome Forecast
Issued by NWS Quad Cities IA IL

Home | Current Version | Previous Version | Text Only | Print | Product List | Glossary On
Versions: 1 2 3 4 5 6 7 8 9 10 11 12 13 14 15
000
FTUS43 KDVN 272340
TAFMLI
TAF
KMLI 272340Z 2800/2824 16008KT P6SM SKC
     FM280700 16012KT P6SM BKN250 WS020/19040KT
     FM281200 18012G24KT P6SM BKN050
      TEMPO 2814/2818 3SM TSRA BKN035CB
     FM281800 21014G25KT P6SM VCSH SCT050=

USA.gov is the U.S. government's official web portal to all federal, state and local government web resources and services.